| Date | Time | Temp. (oF) | Dew Point (oF) | Rel. Hum. (%) | Press. (in.) | Wind Dir. (deg.) | Wind Speed (mph) | Hourly Rainfall (i n.) |
|
|---|---|---|---|---|---|---|---|---|---|
| 1 | 12/30 | 24:00 | 31 | 18 | 59 | 29.93 | 130 | 1 | 0.00 |
| 2 | 12/29 | 23:00 | 32 | 17 | 54 | 29.95 | 330 | 9 | 0.00 |
| 3 | 12/29 | 22:00 | 28 | 16 | 61 | 29.98 | 140 | 0 | 0.00 |
| 4 | 12/29 | 21:00 | 31 | 16 | 54 | 30.00 | 140 | 1 | 0.00 |
| 5 | 12/29 | 20:00 | 29 | 16 | 60 | 30.03 | 340 | 1 | 0.00 |
| 6 | 12/29 | 19:00 | 29 | 16 | 58 | 30.01 | 50 | 0 | 0.00 |
| 7 | 12/29 | 18:00 | 31 | 14 | 51 | 30.04 | 330 | 2 | 0.00 |
| 8 | 12/29 | 17:00 | 33 | 13 | 45 | 30.03 | 300 | 2 | 0.00 |
| 9 | 12/29 | 16:00 | 36 | 13 | 40 | 30.01 | 270 | 2 | 0.00 |
| 10 | 12/29 | 15:00 | 36 | 13 | 40 | 30.01 | 270 | 2 | 0.00 |
| 11 | 12/29 | 14:00 | 37 | 15 | 41 | 30.00 | 290 | 10 | 0.00 |
| 12 | 12/29 | 13:00 | 36 | 15 | 42 | 29.99 | 280 | 9 | 0.00 |
| 13 | 12/29 | 12:00 | 35 | 14 | 43 | 29.98 | 290 | 10 | 0.00 |
| 14 | 12/29 | 11:00 | 33 | 16 | 51 | 29.99 | 270 | 16 | 0.00 |
| 15 | 12/29 | 10:00 | 31 | 17 | 58 | 29.98 | 290 | 9 | 0.00 |
| 16 | 12/29 | 09:00 | 27 | 16 | 65 | 29.95 | 260 | 9 | 0.00 |
| 17 | 12/29 | 08:00 | 26 | 16 | 67 | 29.92 | 250 | 4 | 0.00 |
| 18 | 12/29 | 07:00 | 25 | 15 | 68 | 29.87 | 330 | 2 | 0.00 |
| 19 | 12/29 | 06:00 | 25 | 15 | 68 | 29.83 | 310 | 2 | 0.00 |
| 20 | 12/29 | 05:00 | 26 | 16 | 66 | 29.80 | 270 | 6 | 0.00 |
| 21 | 12/29 | 04:00 | 27 | 16 | 65 | 29.78 | 260 | 7 | 0.00 |
| 22 | 12/29 | 03:00 | 28 | 19 | 70 | 29.77 | 310 | 4 | 0.00 |
| 23 | 12/29 | 02:00 | 28 | 20 | 73 | 29.75 | 310 | 2 | 0.00 |
| 24 | 12/29 | 01:00 | 28 | 21 | 77 | 29.74 | 290 | 6 | 0.00 |